createdAt,value
2018-04-12T00:01:28.489Z,8.50
2018-04-12T00:04:31.001Z,8.41
2018-04-12T00:07:33.504Z,8.42
2018-04-12T00:10:36.031Z,8.39
2018-04-12T00:13:38.504Z,8.44
2018-04-12T00:16:41.001Z,8.43
2018-04-12T00:19:43.480Z,8.48
2018-04-12T00:22:45.989Z,8.39
2018-04-12T00:25:48.496Z,8.41
2018-04-12T00:28:50.996Z,8.56
2018-04-12T00:31:53.550Z,8.49
2018-04-12T00:34:56.136Z,8.50
2018-04-12T00:37:58.636Z,8.58
2018-04-12T00:41:01.111Z,8.53
2018-04-12T00:44:03.603Z,8.59
2018-04-12T00:47:06.054Z,8.60
2018-04-12T00:50:08.571Z,8.55
2018-04-12T00:53:11.086Z,8.57
2018-04-12T00:56:13.692Z,8.58
2018-04-12T00:59:16.243Z,8.55
2018-04-12T01:02:18.708Z,8.57
2018-04-12T01:05:21.212Z,8.57
2018-04-12T01:08:23.718Z,8.55
2018-04-12T01:11:26.233Z,8.49
2018-04-12T01:14:28.806Z,8.45
2018-04-12T01:17:31.271Z,8.42
2018-04-12T01:20:33.816Z,8.50
2018-04-12T01:23:36.328Z,8.48
2018-04-12T01:26:38.830Z,8.59
2018-04-12T01:29:41.346Z,8.55
2018-04-12T01:32:43.791Z,8.57
2018-04-12T01:35:46.281Z,8.64
2018-04-12T01:38:48.771Z,8.68
2018-04-12T01:41:51.257Z,8.71
2018-04-12T01:44:53.852Z,8.70
2018-04-12T01:47:56.361Z,8.68
2018-04-12T01:50:58.843Z,8.64
2018-04-12T01:54:01.302Z,8.63
2018-04-12T01:57:03.817Z,8.64
2018-04-12T02:00:06.293Z,8.76
2018-04-12T02:03:08.876Z,8.75
2018-04-12T02:06:11.366Z,8.82
2018-04-12T02:09:13.862Z,8.89
2018-04-12T02:12:16.509Z,8.93
2018-04-12T02:15:18.967Z,8.93
2018-04-12T02:18:21.465Z,8.87
2018-04-12T02:21:23.990Z,8.94
2018-04-12T02:24:26.464Z,8.98
2018-04-12T02:27:28.949Z,8.93
2018-04-12T02:30:31.484Z,9.01
2018-04-12T02:33:33.998Z,9.10
2018-04-12T02:36:36.477Z,9.14
2018-04-12T02:39:38.974Z,9.21
2018-04-12T02:42:41.497Z,9.24
2018-04-12T02:45:44.013Z,9.27
2018-04-12T02:48:46.463Z,9.31
2018-04-12T02:51:49.105Z,9.25
2018-04-12T02:54:51.641Z,9.23
2018-04-12T02:57:54.140Z,9.18
2018-04-12T03:00:56.620Z,9.19
2018-04-12T03:03:59.093Z,9.16
2018-04-12T03:07:01.594Z,9.11
2018-04-12T03:10:04.186Z,9.11
2018-04-12T03:13:06.740Z,9.08
2018-04-12T03:16:09.214Z,9.10
2018-04-12T03:19:11.765Z,9.07
2018-04-12T03:22:14.224Z,9.07
2018-04-12T03:25:16.760Z,8.98
2018-04-12T03:28:19.249Z,8.96
2018-04-12T03:31:21.753Z,8.92
2018-04-12T03:34:24.260Z,8.83
2018-04-12T03:37:26.748Z,8.86
2018-04-12T03:40:29.256Z,8.82
2018-04-12T03:43:31.864Z,8.76
2018-04-12T03:46:34.325Z,8.71
2018-04-12T03:49:36.870Z,8.67
2018-04-12T03:52:39.361Z,8.61
2018-04-12T03:55:41.876Z,8.55
2018-04-12T03:58:44.348Z,8.46
2018-04-12T04:01:46.918Z,8.36
2018-04-12T04:04:49.389Z,8.31
2018-04-12T04:07:51.931Z,8.28
2018-04-12T04:10:54.413Z,8.21
2018-04-12T04:13:56.879Z,8.20
2018-04-12T04:17:11.574Z,8.23
2018-04-12T04:20:26.049Z,8.17
2018-04-12T04:23:28.545Z,8.14
2018-04-12T04:26:31.023Z,8.06
2018-04-12T04:29:33.606Z,8.07
2018-04-12T04:32:36.110Z,8.08
2018-04-12T04:35:38.609Z,8.03
2018-04-12T04:38:41.040Z,8.00
2018-04-12T04:41:44.735Z,8.00
2018-04-12T04:44:47.276Z,7.92
2018-04-12T04:47:49.777Z,7.91
2018-04-12T04:50:52.309Z,7.89
2018-04-12T04:53:54.782Z,7.82
2018-04-12T04:56:57.261Z,7.77
2018-04-12T04:59:59.707Z,7.76
2018-04-12T05:03:02.172Z,7.72
2018-04-12T05:06:04.676Z,7.75
2018-04-12T05:09:07.187Z,7.74
2018-04-12T05:12:09.650Z,7.70
2018-04-12T05:15:12.116Z,7.68
2018-04-12T05:18:14.746Z,7.64
2018-04-12T05:21:17.181Z,7.58
2018-04-12T05:24:19.686Z,7.59
2018-04-12T05:27:22.160Z,7.54
2018-04-12T05:30:24.654Z,7.53
2018-04-12T05:33:27.116Z,7.52
2018-04-12T05:36:29.648Z,7.47
2018-04-12T05:39:32.108Z,7.44
2018-04-12T05:42:34.621Z,7.35
2018-04-12T05:45:37.157Z,7.39
2018-04-12T05:48:39.689Z,7.35
2018-04-12T05:51:42.150Z,7.31
2018-04-12T05:54:44.645Z,7.25
2018-04-12T05:57:47.095Z,7.24
2018-04-12T06:00:49.628Z,7.30
2018-04-12T06:03:52.085Z,7.29
2018-04-12T06:06:54.587Z,7.27
2018-04-12T06:09:57.060Z,7.32
2018-04-12T06:12:59.596Z,7.29
2018-04-12T06:16:02.091Z,7.28
2018-04-12T06:19:04.599Z,7.24
2018-04-12T06:22:07.069Z,7.20
2018-04-12T06:25:09.533Z,7.22
2018-04-12T06:28:12.008Z,7.25
2018-04-12T06:31:14.533Z,7.25
2018-04-12T06:34:17.022Z,7.28
2018-04-12T06:37:19.531Z,7.31
2018-04-12T06:40:22.107Z,7.33
2018-04-12T06:43:24.662Z,7.33
2018-04-12T06:46:27.170Z,7.39
2018-04-12T06:49:29.687Z,7.39
2018-04-12T06:52:32.246Z,7.41
2018-04-12T06:55:34.769Z,7.50
2018-04-12T06:58:37.289Z,7.39
2018-04-12T07:01:39.759Z,7.40
2018-04-12T07:04:42.252Z,7.41
2018-04-12T07:07:44.743Z,7.40
2018-04-12T07:10:47.223Z,7.43
2018-04-12T07:13:49.699Z,7.50
2018-04-12T07:16:52.235Z,7.46
2018-04-12T07:19:54.787Z,7.45
2018-04-12T07:22:57.290Z,7.46
2018-04-12T07:25:59.806Z,7.48
2018-04-12T07:29:02.279Z,7.54
2018-04-12T07:32:04.848Z,7.59
2018-04-12T07:35:07.388Z,7.67
2018-04-12T07:38:09.845Z,7.64
2018-04-12T07:41:12.370Z,7.68
2018-04-12T07:44:14.844Z,7.85
2018-04-12T07:47:17.382Z,7.83
2018-04-12T07:50:19.821Z,7.96
2018-04-12T07:53:22.360Z,8.11
2018-04-12T07:56:24.936Z,8.19
2018-04-12T07:59:27.384Z,8.19
2018-04-12T08:02:29.899Z,8.29
2018-04-12T08:05:32.474Z,8.27
2018-04-12T08:08:34.971Z,8.24
2018-04-12T08:11:37.481Z,8.32
2018-04-12T08:14:39.956Z,8.22
2018-04-12T08:20:51.306Z,8.36
2018-04-12T08:23:53.945Z,8.35
2018-04-12T08:26:56.443Z,8.36
2018-04-12T08:29:58.937Z,8.39
2018-04-12T08:33:01.406Z,8.24
2018-04-12T08:36:03.910Z,8.28
2018-04-12T08:39:06.453Z,8.34
2018-04-12T08:42:08.993Z,8.28
2018-04-12T08:45:11.472Z,8.27
2018-04-12T08:48:13.968Z,8.43
2018-04-12T08:51:16.511Z,8.31
2018-04-12T08:54:18.992Z,8.50
2018-04-12T08:57:21.499Z,8.57
2018-04-12T09:00:23.958Z,8.76
2018-04-12T09:03:26.497Z,8.76
2018-04-12T09:06:29.067Z,8.86
2018-04-12T09:09:31.587Z,8.78
2018-04-12T09:12:34.073Z,8.88
2018-04-12T09:15:36.605Z,9.04
2018-04-12T09:18:39.098Z,9.16
2018-04-12T09:21:41.613Z,9.11
2018-04-12T09:24:44.134Z,9.31
2018-04-12T09:27:46.635Z,9.31
2018-04-12T09:30:49.676Z,9.38
2018-04-12T09:33:52.152Z,9.30
2018-04-12T09:36:54.680Z,9.49
2018-04-12T09:39:57.199Z,9.37
2018-04-12T09:42:59.698Z,9.68
2018-04-12T09:46:02.180Z,9.81
2018-04-12T09:49:04.712Z,9.90
2018-04-12T09:52:07.206Z,9.68
2018-04-12T09:55:09.716Z,9.69
2018-04-12T09:58:12.210Z,9.79
2018-04-12T10:01:15.460Z,9.70
2018-04-12T10:04:17.924Z,9.74
2018-04-12T10:07:20.445Z,9.64
2018-04-12T10:10:22.954Z,9.59
2018-04-12T10:13:25.465Z,9.55
2018-04-12T10:16:27.953Z,9.55
2018-04-12T10:19:30.509Z,9.68
2018-04-12T10:22:32.989Z,9.81
2018-04-12T10:25:35.650Z,9.84
2018-04-12T10:28:38.159Z,9.88
2018-04-12T10:31:40.690Z,9.80
2018-04-12T10:34:43.205Z,9.90
2018-04-12T10:37:45.709Z,10.06
2018-04-12T10:40:48.208Z,10.12
2018-04-12T10:43:50.695Z,10.13
2018-04-12T10:46:53.189Z,10.03
2018-04-12T10:49:55.682Z,9.94
2018-04-12T10:52:58.298Z,9.95
2018-04-12T10:56:00.840Z,9.93
2018-04-12T10:59:03.320Z,9.93
2018-04-12T11:02:05.865Z,9.99
2018-04-12T11:05:08.442Z,10.12
2018-04-12T11:08:10.963Z,10.06
2018-04-12T11:11:13.467Z,10.14
2018-04-12T11:14:16.006Z,10.22
2018-04-12T11:17:18.461Z,10.26
2018-04-12T11:20:20.928Z,10.31
2018-04-12T11:23:23.539Z,10.43
2018-04-12T11:26:26.003Z,10.53
2018-04-12T11:29:28.493Z,10.63
2018-04-12T11:32:31.007Z,10.77
2018-04-12T11:35:33.554Z,10.95
2018-04-12T11:38:36.078Z,10.97
2018-04-12T11:41:38.549Z,11.02
2018-04-12T11:44:41.054Z,11.07
2018-04-12T11:47:43.589Z,11.04
2018-04-12T11:50:46.041Z,11.14
2018-04-12T11:53:48.549Z,11.34
2018-04-12T11:56:51.019Z,11.54
2018-04-12T11:59:53.521Z,11.76
2018-04-12T12:02:55.993Z,11.97
2018-04-12T12:05:58.509Z,12.29
2018-04-12T12:09:00.992Z,12.35
2018-04-12T12:12:03.525Z,12.56
2018-04-12T12:15:06.020Z,12.62
2018-04-12T12:18:08.592Z,12.65
2018-04-12T12:21:11.115Z,12.77
2018-04-12T12:24:13.625Z,13.27
2018-04-12T12:27:16.122Z,13.29
2018-04-12T12:30:18.600Z,13.40
2018-04-12T12:33:21.129Z,13.60
2018-04-12T12:36:23.669Z,13.85
2018-04-12T12:39:26.455Z,13.78
2018-04-12T12:42:28.944Z,13.71
2018-04-12T12:45:31.479Z,13.81
2018-04-12T12:48:33.976Z,13.89
2018-04-12T12:51:36.479Z,13.99
2018-04-12T12:54:38.978Z,14.26
2018-04-12T12:57:41.481Z,14.53
2018-04-12T13:00:43.945Z,14.70
2018-04-12T13:03:46.463Z,14.87
2018-04-12T13:06:48.947Z,15.01
2018-04-12T13:09:51.579Z,15.10
2018-04-12T13:12:54.143Z,15.08
2018-04-12T13:15:56.666Z,15.39
2018-04-12T13:18:59.141Z,15.29
2018-04-12T13:22:01.725Z,15.39
2018-04-12T13:25:04.419Z,15.76
2018-04-12T13:28:06.928Z,15.77
2018-04-12T13:31:09.453Z,15.98
2018-04-12T13:34:11.969Z,16.12
2018-04-12T13:37:14.737Z,15.85
2018-04-12T13:40:17.304Z,15.86
2018-04-12T13:43:19.831Z,16.00
2018-04-12T13:46:22.408Z,16.13
2018-04-12T13:49:24.858Z,16.13
2018-04-12T13:52:27.381Z,16.51
2018-04-12T13:55:29.855Z,16.67
2018-04-12T13:58:32.449Z,16.37
2018-04-12T14:01:34.964Z,16.44
2018-04-12T14:04:37.457Z,16.43
2018-04-12T14:07:40.046Z,16.61
2018-04-12T14:10:42.543Z,16.54
2018-04-12T14:13:45.051Z,16.70
2018-04-12T14:16:47.582Z,16.74
2018-04-12T14:19:50.084Z,16.81
2018-04-12T14:22:52.605Z,16.91
2018-04-12T14:25:55.453Z,16.99
2018-04-12T14:28:58.020Z,17.11
2018-04-12T14:32:00.531Z,17.16
2018-04-12T14:35:03.105Z,17.47
2018-04-12T14:38:05.881Z,17.38
2018-04-12T14:41:08.553Z,17.49
2018-04-12T14:44:11.224Z,17.31
2018-04-12T14:47:13.726Z,17.44
2018-04-12T14:50:16.204Z,17.58
2018-04-12T14:53:18.812Z,17.44
2018-04-12T14:56:21.322Z,17.46
2018-04-12T14:59:23.835Z,17.55
2018-04-12T15:02:26.358Z,17.46
2018-04-12T15:05:28.864Z,17.49
2018-04-12T15:08:31.387Z,17.52
2018-04-12T15:11:33.928Z,17.52
2018-04-12T15:14:36.469Z,17.62
2018-04-12T15:17:39.045Z,17.62
2018-04-12T15:20:41.603Z,17.60
2018-04-12T15:23:44.102Z,17.46
2018-04-12T15:26:46.575Z,17.61
2018-04-12T15:29:49.107Z,17.59
2018-04-12T15:32:51.639Z,17.82
2018-04-12T15:35:54.111Z,17.79
2018-04-12T15:38:56.682Z,17.63
2018-04-12T15:41:59.205Z,17.58
2018-04-12T15:45:01.722Z,17.69
2018-04-12T15:48:04.196Z,17.63
2018-04-12T15:51:06.728Z,17.65
2018-04-12T15:54:09.205Z,17.55
2018-04-12T15:57:11.733Z,17.72
2018-04-12T16:00:14.378Z,17.64
2018-04-12T16:03:16.941Z,17.78
2018-04-12T16:06:19.440Z,17.87
2018-04-12T16:09:21.940Z,17.88
2018-04-12T16:12:24.516Z,18.00
2018-04-12T16:15:26.988Z,17.97
2018-04-12T16:18:29.553Z,17.78
2018-04-12T16:21:32.037Z,17.82
2018-04-12T16:24:34.615Z,17.96
2018-04-12T16:27:37.085Z,17.78
2018-04-12T16:30:39.655Z,17.78
2018-04-12T16:33:42.107Z,17.92
2018-04-12T16:36:44.645Z,17.88
2018-04-12T16:39:47.171Z,17.82
2018-04-12T16:42:49.645Z,17.83
2018-04-12T16:45:52.204Z,17.89
2018-04-12T16:48:54.766Z,17.92
2018-04-12T16:51:57.312Z,17.74
2018-04-12T16:54:59.767Z,17.72
2018-04-12T16:58:02.319Z,17.83
2018-04-12T17:01:04.896Z,17.67
2018-04-12T17:04:07.410Z,17.76
2018-04-12T17:07:09.938Z,17.69
2018-04-12T17:10:12.482Z,17.63
2018-04-12T17:13:15.023Z,17.65
2018-04-12T17:16:17.538Z,17.74
2018-04-12T17:19:20.049Z,17.69
2018-04-12T17:22:22.588Z,17.66
2018-04-12T17:25:25.158Z,17.58
2018-04-12T17:28:27.777Z,17.62
2018-04-12T17:31:30.342Z,17.55
2018-04-12T17:34:33.737Z,17.50
2018-04-12T17:37:36.240Z,17.39
2018-04-12T17:40:38.744Z,17.34
2018-04-12T17:43:41.222Z,17.30
2018-04-12T17:46:43.778Z,17.28
2018-04-12T17:49:46.333Z,17.10
2018-04-12T17:52:48.859Z,16.95
2018-04-12T17:55:51.465Z,16.88
2018-04-12T17:58:53.915Z,16.78
2018-04-12T18:01:56.480Z,16.64
2018-04-12T18:04:58.945Z,16.58
2018-04-12T18:08:01.505Z,16.47
2018-04-12T18:11:04.023Z,16.36
2018-04-12T18:14:06.528Z,16.39
2018-04-12T18:17:09.090Z,16.31
2018-04-12T18:20:11.665Z,16.29
2018-04-12T18:23:14.219Z,16.24
2018-04-12T18:26:16.846Z,16.25
2018-04-12T18:29:19.380Z,16.34
2018-04-12T18:32:21.904Z,16.26
2018-04-12T18:35:24.482Z,16.14
2018-04-12T18:38:26.985Z,16.07
2018-04-12T18:41:29.617Z,15.93
2018-04-12T18:44:32.210Z,15.92
2018-04-12T18:47:34.733Z,15.96
2018-04-12T18:50:37.221Z,15.92
2018-04-12T18:53:39.751Z,15.91
2018-04-12T18:56:42.412Z,15.91
2018-04-12T18:59:45.004Z,15.87
2018-04-12T19:02:47.554Z,15.78
2018-04-12T19:05:50.103Z,15.76
2018-04-12T19:08:52.785Z,15.81
2018-04-12T19:11:55.375Z,15.76
2018-04-12T19:14:57.999Z,15.77
2018-04-12T19:18:00.557Z,15.82
2018-04-12T19:21:03.111Z,15.74
2018-04-12T19:24:06.522Z,15.74
2018-04-12T19:27:09.161Z,15.72
2018-04-12T19:30:11.696Z,15.69
2018-04-12T19:33:14.191Z,15.60
2018-04-12T19:36:16.716Z,15.56
2018-04-12T19:42:28.012Z,15.38
2018-04-12T19:45:30.533Z,15.32
2018-04-12T19:48:33.047Z,15.30
2018-04-12T19:51:35.599Z,15.26
2018-04-12T19:54:38.090Z,15.16
2018-04-12T19:57:40.724Z,15.10
2018-04-12T20:00:43.283Z,15.01
2018-04-12T20:03:45.817Z,14.93
2018-04-12T20:06:48.323Z,14.86
2018-04-12T20:09:50.825Z,14.80
2018-04-12T20:12:53.537Z,14.72
2018-04-12T20:15:56.040Z,14.66
2018-04-12T20:18:58.556Z,14.64
2018-04-12T20:22:01.092Z,14.65
2018-04-12T20:25:03.605Z,14.63
2018-04-12T20:28:06.230Z,14.63
2018-04-12T20:31:08.694Z,14.66
2018-04-12T20:34:11.207Z,14.66
2018-04-12T20:37:13.732Z,14.68
2018-04-12T20:40:16.310Z,14.70
2018-04-12T20:43:18.864Z,14.69
2018-04-12T20:46:21.388Z,14.71
2018-04-12T20:49:23.990Z,14.71
2018-04-12T20:52:26.533Z,14.69
2018-04-12T20:55:29.006Z,14.72
2018-04-12T20:58:31.536Z,14.85
2018-04-12T21:01:34.049Z,14.79
2018-04-12T21:04:36.605Z,14.77
2018-04-12T21:07:39.075Z,14.74
2018-04-12T21:10:41.637Z,14.72
2018-04-12T21:13:44.143Z,14.70
2018-04-12T21:16:46.754Z,14.69
2018-04-12T21:19:49.239Z,14.80
2018-04-12T21:22:51.868Z,14.78
2018-04-12T21:25:54.441Z,14.89
2018-04-12T21:28:56.980Z,14.94
2018-04-12T21:31:59.521Z,14.93
2018-04-12T21:35:02.056Z,14.94
2018-04-12T21:38:04.540Z,14.93
2018-04-12T21:41:07.086Z,14.93
2018-04-12T21:44:09.596Z,14.92
2018-04-12T21:47:12.132Z,14.86
2018-04-12T21:50:14.660Z,14.75
2018-04-12T21:53:17.263Z,14.64
2018-04-12T21:56:19.745Z,14.66
2018-04-12T21:59:22.269Z,14.59
2018-04-12T22:02:24.774Z,14.56
2018-04-12T22:05:27.260Z,14.53
2018-04-12T22:08:29.798Z,14.42
2018-04-12T22:11:32.335Z,14.32
2018-04-12T22:14:34.806Z,14.24
2018-04-12T22:17:37.346Z,14.15
2018-04-12T22:20:39.950Z,14.11
2018-04-12T22:23:42.478Z,14.03
2018-04-12T22:26:44.954Z,13.93
2018-04-12T22:29:47.425Z,13.85
2018-04-12T22:32:49.955Z,13.80
2018-04-12T22:35:53.816Z,13.76
2018-04-12T22:38:56.351Z,13.65
2018-04-12T22:41:58.863Z,13.65
2018-04-12T22:45:01.341Z,13.69
2018-04-12T22:48:03.836Z,13.70
2018-04-12T22:51:06.338Z,13.71
2018-04-12T22:54:08.847Z,13.82
2018-04-12T22:57:11.330Z,13.81
2018-04-12T23:00:13.822Z,13.81
2018-04-12T23:03:16.337Z,13.88
2018-04-12T23:06:18.906Z,13.85
2018-04-12T23:09:21.465Z,14.21
2018-04-12T23:12:23.976Z,14.43
2018-04-12T23:15:26.462Z,14.48
2018-04-12T23:18:28.984Z,14.63
2018-04-12T23:21:31.482Z,14.70
2018-04-12T23:24:34.076Z,14.87
2018-04-12T23:27:36.576Z,14.93
2018-04-12T23:30:39.073Z,14.94
2018-04-12T23:33:41.566Z,14.97
2018-04-12T23:36:44.221Z,15.02
2018-04-12T23:39:46.787Z,15.00
2018-04-12T23:42:49.293Z,15.06
2018-04-12T23:45:51.753Z,15.06
2018-04-12T23:48:54.284Z,14.95
2018-04-12T23:51:56.777Z,14.92
2018-04-12T23:54:59.318Z,14.26
2018-04-12T23:58:01.857Z,13.96
